^^
Meteo Knjazevac Station Historical Data
 
Daily Summary for August 12, 2020 Units:  Metric    English   Both
Daily Weekly Monthly Yearly Custom
  Current: High: Low: Average:
Temperature: 27.7 °C 27.7 °C 16.7 °C 19.2 °C
Dew Point: 22.7 °C 23.2 °C 16.6 °C 18.6 °C
Humidity: 74% 99% 74% 96%
Wind Speed: 1.6km/h 3.2km/h 0km/h 1.3km/h
Wind Gust: 4.8km/h 8km/h - -
WindSouth - - WSW
Pressure: 1016.5 hPa 1016.8 hPa 1015.8 hPa -
Precipitation: 0 mm      
Historical Graphs
 
 
Tabular Data for August 12, 2020
Time Temperature Dew Point Pressure Wind Wind Speed Wind Gust Humidity Rainfall Rate (Hourly) solar Conditions
00:00 19.8 °C 19.2 °C 1015.8 hPa Calm   4.8 km/h 96% 0 mm 0 W/m2
00:10 19.8 °C 19.2 °C 1016.1 hPa West 3.2 km/h 4.8 km/h 96% 0 mm 0 W/m2
00:20 19.8 °C 19.2 °C 1015.8 hPa Calm   4.8 km/h 96% 0 mm 0 W/m2
00:30 19.6 °C 18.9 °C 1015.8 hPa WSW 1.6 km/h 3.2 km/h 96% 0 mm 0 W/m2
00:40 19.4 °C 18.7 °C 1016.1 hPa Calm   3.2 km/h 96% 0 mm 0 W/m2
00:50 19.3 °C 18.7 °C 1016.1 hPa WSW 1.6 km/h 4.8 km/h 96% 0 mm 0 W/m2
01:00 19 °C 18.3 °C 1016.1 hPa WSW 1.6 km/h 4.8 km/h 96% 0 mm 0 W/m2
01:10 18.9 °C 18.6 °C 1016.1 hPa Calm   3.2 km/h 98% 0 mm 0 W/m2
01:20 18.8 °C 18.5 °C 1016.1 hPa Calm   3.2 km/h 98% 0 mm 0 W/m2
01:30 18.7 °C 18.4 °C 1016.1 hPa WSW 1.6 km/h 3.2 km/h 98% 0 mm 0 W/m2
01:40 18.6 °C 18.3 °C 1016.1 hPa WNW 1.6 km/h 4.8 km/h 98% 0 mm 0 W/m2
01:50 18.6 °C 18.3 °C 1015.8 hPa West 3.2 km/h 4.8 km/h 98% 0 mm 0 W/m2
02:00 18.6 °C 18.4 °C 1016.1 hPa NW 1.6 km/h 4.8 km/h 99% 0 mm 0 W/m2
02:10 18.4 °C 18.1 °C 1016.1 hPa Calm   3.2 km/h 98% 0 mm 0 W/m2
02:20 18.3 °C 18 °C 1016.1 hPa WSW 1.6 km/h 3.2 km/h 98% 0 mm 0 W/m2
02:30 18.1 °C 17.8 °C 1016.1 hPa SW 1.6 km/h 4.8 km/h 98% 0 mm 0 W/m2
02:40 17.9 °C 17.7 °C 1016.1 hPa West 1.6 km/h 4.8 km/h 99% 0 mm 0 W/m2
02:50 17.9 °C 17.7 °C 1016.1 hPa Calm   3.2 km/h 99% 0 mm 0 W/m2
03:00 17.9 °C 17.7 °C 1016.1 hPa West 1.6 km/h 4.8 km/h 99% 0 mm 0 W/m2
03:10 17.9 °C 17.7 °C 1016.1 hPa WNW 1.6 km/h 4.8 km/h 99% 0 mm 0 W/m2
03:20 17.9 °C 17.7 °C 1016.1 hPa NW 1.6 km/h 3.2 km/h 99% 0 mm 0 W/m2
03:30 17.7 °C 17.6 °C 1016.1 hPa Calm   3.2 km/h 99% 0 mm 0 W/m2
03:40 17.6 °C 17.4 °C 1016.1 hPa West 1.6 km/h 3.2 km/h 99% 0 mm 0 W/m2
03:50 17.6 °C 17.4 °C 1016.1 hPa Calm   4.8 km/h 99% 0 mm 0 W/m2
04:00 17.5 °C 17.3 °C 1016.1 hPa Calm   3.2 km/h 99% 0 mm 0 W/m2
04:10 17.4 °C 17.2 °C 1016.1 hPa West 3.2 km/h 4.8 km/h 99% 0 mm 0 W/m2
04:20 17.3 °C 17.2 °C 1015.8 hPa Calm   3.2 km/h 99% 0 mm 0 W/m2
04:30 17.3 °C 17.2 °C 1015.8 hPa WSW 1.6 km/h 3.2 km/h 99% 0 mm 0 W/m2
04:40 17.2 °C 17.1 °C 1015.8 hPa Calm   4.8 km/h 99% 0 mm 0 W/m2
04:50 17.1 °C 16.9 °C 1015.8 hPa West 3.2 km/h 4.8 km/h 99% 0 mm 0 W/m2
05:00 17.1 °C 16.9 °C 1015.8 hPa West 1.6 km/h 8 km/h 99% 0 mm 0 W/m2
05:10 16.9 °C 16.7 °C 1016.1 hPa West 1.6 km/h 4.8 km/h 99% 0 mm 0 W/m2
05:20 17 °C 16.8 °C 1015.8 hPa NW 1.6 km/h 6.4 km/h 99% 0 mm 0 W/m2
05:30 16.9 °C 16.7 °C 1016.1 hPa West 1.6 km/h 4.8 km/h 99% 0 mm 0 W/m2
05:40 16.9 °C 16.7 °C 1016.1 hPa Calm   6.4 km/h 99% 0 mm 6 W/m2
05:50 16.8 °C 16.7 °C 1016.1 hPa WSW 1.6 km/h 3.2 km/h 99% 0 mm 13 W/m2
06:00 16.7 °C 16.6 °C 1016.1 hPa WSW 1.6 km/h 4.8 km/h 99% 0 mm 25 W/m2
06:10 16.7 °C 16.6 °C 1016.1 hPa NW 1.6 km/h 4.8 km/h 99% 0 mm 40 W/m2
06:20 16.7 °C 16.6 °C 1016.1 hPa WSW 1.6 km/h 3.2 km/h 99% 0 mm 58 W/m2
06:30 16.7 °C 16.6 °C 1016.1 hPa West 1.6 km/h 3.2 km/h 99% 0 mm 78 W/m2
06:40 16.8 °C 16.7 °C 1016.1 hPa Calm   4.8 km/h 99% 0 mm 104 W/m2
06:50 17 °C 16.8 °C 1016.5 hPa WNW 1.6 km/h 6.4 km/h 99% 0 mm 120 W/m2
07:00 17.2 °C 17.1 °C 1016.5 hPa Calm   6.4 km/h 99% 0 mm 148 W/m2
07:10 17.5 °C 17.3 °C 1016.5 hPa West 1.6 km/h 3.2 km/h 99% 0 mm 183 W/m2
07:20 17.7 °C 17.6 °C 1016.5 hPa West 1.6 km/h 4.8 km/h 99% 0 mm 211 W/m2
07:30 18.1 °C 17.9 °C 1016.5 hPa West 3.2 km/h 4.8 km/h 99% 0 mm 242 W/m2
07:40 18.4 °C 18.2 °C 1016.5 hPa WNW 3.2 km/h 4.8 km/h 99% 0 mm 274 W/m2
07:50 18.8 °C 18.7 °C 1016.5 hPa WSW 1.6 km/h 4.8 km/h 99% 0 mm 308 W/m2
08:00 19.1 °C 18.9 °C 1016.8 hPa Calm   4.8 km/h 99% 0 mm 340 W/m2
08:10 19.4 °C 19.2 °C 1016.8 hPa Calm   3.2 km/h 99% 0 mm 382 W/m2
08:20 19.9 °C 19.7 °C 1016.8 hPa Calm   3.2 km/h 99% 0 mm 414 W/m2
08:30 20.3 °C 20.2 °C 1016.8 hPa SW 1.6 km/h 3.2 km/h 99% 0 mm 452 W/m2
08:40 20.8 °C 20.5 °C 1016.8 hPa Calm   4.8 km/h 98% 0 mm 496 W/m2
08:50 21.3 °C 20.6 °C 1016.8 hPa Calm   4.8 km/h 96% 0 mm 530 W/m2
09:00 22.1 °C 21.3 °C 1016.5 hPa Calm   4.8 km/h 95% 0 mm 568 W/m2
09:10 23.3 °C 21.8 °C 1016.5 hPa South 1.6 km/h 6.4 km/h 91% 0 mm 602 W/m2
09:20 24.2 °C 22.3 °C 1016.5 hPa Calm   8 km/h 89% 0 mm 629 W/m2
09:30 25.1 °C 22.4 °C 1016.5 hPa South 3.2 km/h 8 km/h 85% 0 mm 655 W/m2
09:40 25.8 °C 22.5 °C 1016.5 hPa South 1.6 km/h 6.4 km/h 82% 0 mm 680 W/m2
09:50 26.4 °C 22.9 °C 1016.5 hPa SE 3.2 km/h 8 km/h 81% 0 mm 704 W/m2
10:00 26.9 °C 23.2 °C 1016.5 hPa Calm   4.8 km/h 80% 0 mm 726 W/m2
10:10 27.3 °C 23.2 °C 1016.5 hPa WSW 1.6 km/h 6.4 km/h 78% 0 mm 748 W/m2
10:20 27.7 °C 22.7 °C 1016.5 hPa South 1.6 km/h 4.8 km/h 74% 0 mm 768 W/m2
Knjazevac, Serbia
Compliments of Weather Underground - 2 mb